Time;durP1;ratioP1;P1;durP2;ratioP2;P2;SDS_P1;SDS_P2;PMS_P1;PMS_P2;Temp;Humidity;BMP_temperature;BMP_pressure;BME280_temperature;BME280_humidity;BME280_pressure;Samples;Min_cycle;Max_cycle;Signal;HPM_P1;HPM_P2
2024/04/22 00:00:28;;;;;;;3.25;0.65;;;;;;;;;;5264033;26;98918;-48
2024/04/22 00:02:53;;;;;;;4.45;0.90;;;;;;;;;;5295452;26;96742;-49
2024/04/22 00:05:20;;;;;;;7.63;0.77;;;;;;;;;;5266588;26;96028;-47
2024/04/22 00:07:46;;;;;;;7.00;0.90;;;;;;;;;;5264427;26;96524;-48
2024/04/22 00:10:11;;;;;;;5.72;0.63;;;;;;;;;;5251625;26;95661;-49
2024/04/22 00:12:36;;;;;;;4.97;0.90;;;;;;;;;;5266752;26;95885;-50
2024/04/22 00:15:02;;;;;;;11.15;1.50;;;;;;;;;;5269362;26;95768;-47
2024/04/22 00:17:27;;;;;;;7.10;0.95;;;;;;;;;;5251765;26;97066;-47
2024/04/22 00:19:53;;;;;;;4.95;0.85;;;;;;;;;;5260367;26;98982;-48
2024/04/22 00:22:19;;;;;;;7.68;0.60;;;;;;;;;;5265625;26;95888;-47
2024/04/22 00:24:44;;;;;;;5.55;0.50;;;;;;;;;;5241965;26;99351;-49
2024/04/22 00:27:10;;;;;;;5.07;0.70;;;;;;;;;;5265612;26;96171;-48
2024/04/22 00:29:35;;;;;;;3.47;1.05;;;;;;;;;;5250907;26;96333;-49
2024/04/22 00:32:00;;;;;;;6.00;1.42;;;;;;;;;;5256639;26;96610;-49
2024/04/22 00:34:26;;;;;;;8.43;0.70;;;;;;;;;;5264297;26;96576;-48
2024/04/22 00:36:51;;;;;;;5.57;1.08;;;;;;;;;;5267444;26;95527;-50
2024/04/22 00:39:16;;;;;;;5.00;0.77;;;;;;;;;;5265056;26;95981;-50
2024/04/22 00:41:42;;;;;;;4.65;0.80;;;;;;;;;;5263438;26;95598;-47
2024/04/22 00:44:07;;;;;;;4.38;0.82;;;;;;;;;;5264909;26;96053;-49
2024/04/22 00:46:32;;;;;;;6.38;0.88;;;;;;;;;;5242811;26;98751;-49
2024/04/22 00:48:58;;;;;;;5.75;1.00;;;;;;;;;;5265926;26;96035;-50
2024/04/22 00:51:25;;;;;;;4.57;0.73;;;;;;;;;;5262692;26;97214;-49
2024/04/22 00:53:52;;;;;;;7.95;0.70;;;;;;;;;;5296620;26;99123;-49
2024/04/22 00:56:18;;;;;;;5.40;0.70;;;;;;;;;;5268664;26;95755;-50
2024/04/22 00:58:46;;;;;;;4.40;0.60;;;;;;;;;;5265202;26;97550;-49
2024/04/22 01:01:12;;;;;;;7.15;1.20;;;;;;;;;;5264581;26;95400;-50
2024/04/22 01:03:38;;;;;;;7.13;1.25;;;;;;;;;;5264844;26;96189;-48
2024/04/22 01:06:03;;;;;;;6.93;1.00;;;;;;;;;;5300851;26;98693;-48
2024/04/22 01:08:29;;;;;;;7.25;0.98;;;;;;;;;;5265144;26;96285;-47
2024/04/22 01:10:54;;;;;;;4.68;0.65;;;;;;;;;;5245752;26;97171;-48
2024/04/22 01:13:19;;;;;;;6.95;0.82;;;;;;;;;;5264489;26;95959;-48
2024/04/22 01:15:45;;;;;;;7.95;1.30;;;;;;;;;;5265063;26;95893;-49
2024/04/22 01:18:17;;;;;;;3.17;0.63;;;;;;;;;;5245749;26;98933;-49
2024/04/22 01:20:43;;;;;;;6.63;0.68;;;;;;;;;;5245242;26;95794;-52
2024/04/22 01:23:08;;;;;;;4.30;0.75;;;;;;;;;;5301601;26;98909;-49
2024/04/22 01:25:37;;;;;;;6.57;0.98;;;;;;;;;;5321753;26;99155;-50
2024/04/22 01:28:04;;;;;;;3.50;0.93;;;;;;;;;;5247512;26;96116;-49
2024/04/22 01:30:30;;;;;;;6.47;0.77;;;;;;;;;;5271823;26;97695;-51
2024/04/22 01:32:55;;;;;;;7.05;0.90;;;;;;;;;;5265689;26;96184;-50
2024/04/22 01:35:20;;;;;;;6.00;0.73;;;;;;;;;;5265507;26;95964;-49
2024/04/22 01:37:46;;;;;;;4.82;0.60;;;;;;;;;;5265969;26;97195;-48
2024/04/22 01:40:12;;;;;;;7.15;0.90;;;;;;;;;;5268414;26;95951;-56
2024/04/22 01:42:38;;;;;;;8.98;1.65;;;;;;;;;;5250333;26;98789;-56
2024/04/22 01:45:04;;;;;;;7.05;0.90;;;;;;;;;;5296487;26;97824;-49
2024/04/22 01:47:30;;;;;;;6.43;1.08;;;;;;;;;;5265027;26;95784;-48
2024/04/22 01:49:55;;;;;;;5.38;0.60;;;;;;;;;;5264570;26;96103;-50
2024/04/22 01:52:20;;;;;;;8.30;1.08;;;;;;;;;;5261265;26;98756;-50
2024/04/22 01:54:46;;;;;;;7.40;1.30;;;;;;;;;;5265112;26;95760;-49
2024/04/22 01:57:11;;;;;;;5.68;0.90;;;;;;;;;;5262779;26;96597;-47
2024/04/22 01:59:37;;;;;;;3.83;0.63;;;;;;;;;;5264299;26;95946;-49
2024/04/22 02:02:02;;;;;;;6.68;0.93;;;;;;;;;;5297819;26;96049;-49
2024/04/22 02:04:28;;;;;;;4.80;0.65;;;;;;;;;;5263777;26;96400;-50
2024/04/22 02:06:53;;;;;;;2.78;0.63;;;;;;;;;;5264228;26;95869;-48
2024/04/22 02:09:18;;;;;;;8.57;1.23;;;;;;;;;;5264828;26;96117;-47
2024/04/22 02:11:44;;;;;;;5.75;1.02;;;;;;;;;;5264125;26;95980;-48
2024/04/22 02:14:09;;;;;;;5.20;1.33;;;;;;;;;;5264573;26;96224;-48
2024/04/22 02:16:35;;;;;;;3.70;0.70;;;;;;;;;;5311210;26;97232;-49
2024/04/22 02:19:00;;;;;;;6.68;1.13;;;;;;;;;;5262960;26;95939;-48
2024/04/22 02:21:29;;;;;;;5.65;1.17;;;;;;;;;;5261740;26;95819;-49
2024/04/22 02:23:55;;;;;;;6.18;0.85;;;;;;;;;;5263710;26;95915;-47
2024/04/22 02:26:20;;;;;;;5.88;0.65;;;;;;;;;;5283576;26;96611;-49
2024/04/22 02:28:49;;;;;;;6.22;1.08;;;;;;;;;;5260404;26;99361;-48
2024/04/22 02:31:18;;;;;;;5.22;1.42;;;;;;;;;;5262269;26;98031;-47
2024/04/22 02:33:44;;;;;;;10.77;1.47;;;;;;;;;;5302109;26;98180;-50
2024/04/22 02:36:09;;;;;;;4.90;1.13;;;;;;;;;;5236718;26;98717;-55
2024/04/22 02:38:34;;;;;;;5.25;0.80;;;;;;;;;;5262494;26;95933;-56
2024/04/22 02:41:00;;;;;;;6.57;0.80;;;;;;;;;;5263464;26;95749;-48
2024/04/22 02:43:25;;;;;;;2.85;0.68;;;;;;;;;;5263308;26;96265;-50
2024/04/22 02:45:51;;;;;;;7.30;1.25;;;;;;;;;;5254104;26;99359;-51
2024/04/22 02:48:16;;;;;;;7.65;1.30;;;;;;;;;;5256425;26;98606;-49
2024/04/22 02:50:41;;;;;;;4.93;0.77;;;;;;;;;;5263329;26;95949;-48
2024/04/22 02:53:07;;;;;;;6.55;0.68;;;;;;;;;;5249746;26;97801;-49
2024/04/22 02:55:32;;;;;;;5.78;0.70;;;;;;;;;;5262192;26;95903;-48
2024/04/22 02:57:58;;;;;;;5.60;0.80;;;;;;;;;;5264562;26;96080;-48
2024/04/22 03:00:24;;;;;;;6.65;1.00;;;;;;;;;;5263640;26;96072;-48
2024/04/22 03:02:50;;;;;;;8.55;0.95;;;;;;;;;;5249706;26;96520;-49
2024/04/22 03:05:15;;;;;;;6.43;0.68;;;;;;;;;;5297886;26;97168;-48
2024/04/22 03:07:40;;;;;;;7.22;1.35;;;;;;;;;;5262771;26;96105;-48
2024/04/22 03:10:06;;;;;;;2.45;0.63;;;;;;;;;;5262401;26;96131;-49
2024/04/22 03:12:32;;;;;;;8.77;1.00;;;;;;;;;;5298487;26;96670;-48
2024/04/22 03:14:58;;;;;;;6.55;1.00;;;;;;;;;;5263273;26;96498;-49
2024/04/22 03:17:24;;;;;;;4.85;0.70;;;;;;;;;;5254275;26;101460;-49
2024/04/22 03:19:50;;;;;;;6.63;0.88;;;;;;;;;;5262548;26;95780;-55
2024/04/22 03:22:15;;;;;;;5.38;0.60;;;;;;;;;;5262482;26;96003;-56
2024/04/22 03:24:41;;;;;;;4.15;0.85;;;;;;;;;;5280633;26;98651;-47
2024/04/22 03:27:06;;;;;;;5.18;1.13;;;;;;;;;;5245741;26;95937;-49
2024/04/22 03:29:31;;;;;;;7.82;1.30;;;;;;;;;;5262135;26;96006;-47
2024/04/22 03:31:57;;;;;;;4.25;0.75;;;;;;;;;;5221422;26;95581;-46
2024/04/22 03:34:22;;;;;;;4.75;1.00;;;;;;;;;;5247279;26;99153;-49
2024/04/22 03:36:47;;;;;;;16.85;1.55;;;;;;;;;;5258755;26;96812;-48
2024/04/22 03:39:13;;;;;;;11.10;1.08;;;;;;;;;;5248345;26;96083;-49
2024/04/22 03:41:38;;;;;;;4.38;1.20;;;;;;;;;;5261166;26;96120;-49
2024/04/22 03:44:04;;;;;;;6.43;1.08;;;;;;;;;;5258632;26;96026;-48
2024/04/22 03:51:57;;;;;;;5.55;0.60;;;;;;;;;;5257246;26;95970;-49
2024/04/22 03:54:22;;;;;;;5.55;0.70;;;;;;;;;;5274642;26;98703;-49
2024/04/22 03:56:47;;;;;;;6.30;0.88;;;;;;;;;;5260642;26;96340;-49
2024/04/22 03:59:13;;;;;;;6.70;1.10;;;;;;;;;;5260635;26;96120;-49
2024/04/22 04:01:38;;;;;;;12.40;1.02;;;;;;;;;;5255821;26;97865;-57
2024/04/22 04:04:04;;;;;;;5.85;0.75;;;;;;;;;;5259888;26;96855;-55
2024/04/22 04:06:29;;;;;;;6.25;0.80;;;;;;;;;;5256746;26;95865;-48
2024/04/22 04:08:54;;;;;;;5.32;0.82;;;;;;;;;;5254958;26;99891;-47
2024/04/22 04:11:26;;;;;;;6.38;0.98;;;;;;;;;;5287498;26;99230;-47
2024/04/22 04:13:51;;;;;;;6.03;0.82;;;;;;;;;;5253663;26;98738;-49
2024/04/22 04:16:16;;;;;;;5.47;0.70;;;;;;;;;;5221627;26;97849;-48
2024/04/22 04:18:42;;;;;;;4.97;0.68;;;;;;;;;;5280996;26;95960;-47
2024/04/22 04:21:07;;;;;;;10.90;0.90;;;;;;;;;;5230864;26;95928;-48
2024/04/22 04:23:33;;;;;;;3.20;0.70;;;;;;;;;;5230634;26;96118;-47
2024/04/22 04:26:01;;;;;;;4.20;0.82;;;;;;;;;;5258284;26;95877;-46
2024/04/22 04:28:27;;;;;;;5.70;0.90;;;;;;;;;;5231793;26;96710;-49
2024/04/22 04:30:59;;;;;;;6.30;1.13;;;;;;;;;;5229783;27;96010;-48
2024/04/22 04:33:25;;;;;;;6.22;0.93;;;;;;;;;;5231763;27;95724;-50
2024/04/22 04:36:05;;;;;;;5.72;1.15;;;;;;;;;;5285426;26;97221;-50
2024/04/22 04:38:31;;;;;;;5.10;0.70;;;;;;;;;;5229776;26;97125;-50
2024/04/22 04:40:57;;;;;;;6.47;1.05;;;;;;;;;;5228231;26;97151;-50
2024/04/22 04:43:23;;;;;;;3.78;0.73;;;;;;;;;;5229625;27;96899;-50
2024/04/22 04:45:49;;;;;;;4.07;0.60;;;;;;;;;;5256960;26;97232;-56
2024/04/22 04:48:15;;;;;;;8.20;1.48;;;;;;;;;;5267610;26;101947;-57
2024/04/22 04:50:40;;;;;;;7.03;0.95;;;;;;;;;;5227702;26;97692;-48
2024/04/22 04:53:06;;;;;;;4.63;0.95;;;;;;;;;;5230529;26;95883;-49
2024/04/22 04:55:31;;;;;;;3.90;0.98;;;;;;;;;;5278394;26;98941;-57
2024/04/22 04:57:57;;;;;;;4.45;0.70;;;;;;;;;;5221696;26;97835;-57
2024/04/22 05:00:23;;;;;;;5.90;0.98;;;;;;;;;;5223080;26;95887;-50
2024/04/22 05:02:48;;;;;;;3.55;0.70;;;;;;;;;;5224300;26;97895;-50
2024/04/22 05:05:14;;;;;;;4.63;0.80;;;;;;;;;;5212900;26;98386;-57
2024/04/22 05:07:39;;;;;;;6.78;1.00;;;;;;;;;;5277877;26;97291;-57
2024/04/22 05:10:05;;;;;;;8.32;1.02;;;;;;;;;;5237761;26;95926;-50
2024/04/22 05:12:32;;;;;;;8.85;2.67;;;;;;;;;;5259681;26;97238;-48
2024/04/22 05:14:57;;;;;;;8.27;1.10;;;;;;;;;;5261790;26;96254;-48
2024/04/22 05:17:22;;;;;;;6.82;1.42;;;;;;;;;;5260251;26;97458;-51
2024/04/22 05:19:48;;;;;;;5.35;1.20;;;;;;;;;;5260725;26;96173;-57
2024/04/22 05:22:13;;;;;;;4.38;1.08;;;;;;;;;;5231132;26;99322;-57
2024/04/22 05:24:38;;;;;;;24.55;1.65;;;;;;;;;;5256462;26;95937;-50
2024/04/22 05:27:04;;;;;;;18.38;1.50;;;;;;;;;;5251490;26;96529;-57
2024/04/22 05:29:29;;;;;;;8.35;1.20;;;;;;;;;;5257052;26;96394;-57
2024/04/22 05:31:55;;;;;;;5.38;1.00;;;;;;;;;;5260660;26;96698;-57
2024/04/22 05:37:04;;;;;;;7.63;1.48;;;;;;;;;;5263845;26;97384;-49
2024/04/22 05:39:30;;;;;;;3.70;0.93;;;;;;;;;;5264097;26;95929;-48
2024/04/22 05:41:55;;;;;;;11.18;1.77;;;;;;;;;;5262512;26;95881;-51
2024/04/22 05:44:21;;;;;;;7.22;1.42;;;;;;;;;;5261124;26;95538;-51
2024/04/22 05:46:46;;;;;;;5.82;1.52;;;;;;;;;;5260461;26;98777;-51
2024/04/22 05:49:12;;;;;;;7.32;1.70;;;;;;;;;;5243875;26;97975;-51
2024/04/22 05:51:37;;;;;;;13.73;2.40;;;;;;;;;;5261062;26;95820;-51
2024/04/22 05:54:06;;;;;;;8.35;2.08;;;;;;;;;;5261347;26;97915;-51
2024/04/22 05:56:34;;;;;;;10.13;1.80;;;;;;;;;;5257260;26;96118;-51
2024/04/22 05:58:59;;;;;;;10.60;2.72;;;;;;;;;;5264881;26;95856;-51
2024/04/22 06:01:25;;;;;;;9.25;2.15;;;;;;;;;;5252914;26;97055;-51
2024/04/22 06:03:50;;;;;;;6.45;2.13;;;;;;;;;;5265824;26;97937;-51
2024/04/22 06:06:15;;;;;;;21.65;2.95;;;;;;;;;;5262257;26;95938;-51
2024/04/22 06:08:42;;;;;;;21.15;3.03;;;;;;;;;;5265709;26;98675;-51
2024/04/22 06:11:08;;;;;;;13.80;3.53;;;;;;;;;;5300941;26;95972;-51
2024/04/22 06:13:33;;;;;;;15.98;2.63;;;;;;;;;;5263677;26;97946;-52
2024/04/22 06:15:58;;;;;;;6.25;1.75;;;;;;;;;;5259299;26;98605;-51
2024/04/22 06:18:24;;;;;;;9.38;3.20;;;;;;;;;;5263164;26;95773;-51
2024/04/22 06:20:49;;;;;;;6.65;3.08;;;;;;;;;;5305164;26;98793;-49
2024/04/22 06:23:14;;;;;;;11.55;3.38;;;;;;;;;;5262925;26;95548;-50
2024/04/22 06:25:40;;;;;;;7.85;2.90;;;;;;;;;;5262738;26;98640;-51
2024/04/22 06:28:05;;;;;;;14.20;3.35;;;;;;;;;;5308393;26;97408;-51
2024/04/22 06:30:31;;;;;;;8.90;3.42;;;;;;;;;;5313957;26;95890;-49
2024/04/22 06:32:56;;;;;;;10.32;3.28;;;;;;;;;;5259845;26;97770;-49
2024/04/22 06:35:22;;;;;;;8.98;3.63;;;;;;;;;;5268869;26;98877;-51
2024/04/22 06:37:48;;;;;;;9.98;3.80;;;;;;;;;;5300588;26;95861;-51
2024/04/22 06:40:14;;;;;;;9.05;3.92;;;;;;;;;;5247939;26;98620;-49
2024/04/22 06:42:39;;;;;;;9.60;3.80;;;;;;;;;;5242279;26;98852;-48
2024/04/22 06:45:05;;;;;;;6.95;4.30;;;;;;;;;;5262297;26;99104;-51
2024/04/22 06:47:30;;;;;;;9.43;4.43;;;;;;;;;;5262201;26;98772;-50
2024/04/22 06:49:55;;;;;;;9.75;4.85;;;;;;;;;;5262640;26;95856;-51
2024/04/22 06:52:21;;;;;;;9.43;5.50;;;;;;;;;;5311714;26;98620;-52
2024/04/22 06:54:46;;;;;;;13.57;5.60;;;;;;;;;;5289397;26;98678;-51
2024/04/22 06:57:11;;;;;;;12.23;5.75;;;;;;;;;;5265279;26;95855;-51
2024/04/22 06:59:37;;;;;;;12.05;6.20;;;;;;;;;;5255333;26;97084;-50
2024/04/22 07:02:02;;;;;;;13.32;6.00;;;;;;;;;;5264552;26;95915;-51
2024/04/22 07:04:27;;;;;;;15.43;6.43;;;;;;;;;;5265586;26;95370;-52
2024/04/22 07:06:53;;;;;;;14.75;6.00;;;;;;;;;;5262712;26;96048;-50
2024/04/22 07:09:18;;;;;;;16.27;7.65;;;;;;;;;;5257983;26;96172;-53
2024/04/22 07:11:43;;;;;;;12.40;7.15;;;;;;;;;;5241575;26;97335;-54
2024/04/22 07:14:13;;;;;;;12.80;5.82;;;;;;;;;;5261806;26;98885;-54
2024/04/22 07:16:40;;;;;;;15.27;5.78;;;;;;;;;;5262368;26;95679;-54
2024/04/22 07:19:05;;;;;;;36.50;9.18;;;;;;;;;;5233784;26;97387;-54
2024/04/22 07:21:32;;;;;;;22.13;7.00;;;;;;;;;;5261202;26;96943;-52
2024/04/22 07:23:57;;;;;;;8.98;6.40;;;;;;;;;;5264787;26;95956;-52
2024/04/22 07:26:24;;;;;;;14.88;7.47;;;;;;;;;;5262110;26;95662;-52
2024/04/22 07:28:51;;;;;;;13.82;7.28;;;;;;;;;;5258216;26;97010;-52
2024/04/22 07:31:17;;;;;;;9.32;6.40;;;;;;;;;;5260834;26;95975;-53
2024/04/22 07:33:42;;;;;;;12.48;7.18;;;;;;;;;;5261535;26;96043;-53
2024/04/22 07:36:42;;;;;;;10.77;6.60;;;;;;;;;;5260760;26;95811;-53
2024/04/22 07:39:08;;;;;;;11.82;7.05;;;;;;;;;;5255370;26;96004;-53
2024/04/22 07:41:33;;;;;;;13.50;7.85;;;;;;;;;;5230093;26;98783;-54
2024/04/22 07:43:59;;;;;;;11.90;6.90;;;;;;;;;;5261845;26;95839;-54
2024/04/22 07:46:24;;;;;;;13.60;7.47;;;;;;;;;;5263099;26;96019;-53
2024/04/22 07:48:50;;;;;;;12.95;6.72;;;;;;;;;;5281196;26;97139;-53
2024/04/22 07:51:16;;;;;;;16.83;6.95;;;;;;;;;;5289835;26;99052;-53
2024/04/22 07:53:41;;;;;;;11.82;7.10;;;;;;;;;;5288369;26;97818;-53
2024/04/22 07:56:17;;;;;;;11.48;6.75;;;;;;;;;;5256328;26;95619;-51
2024/04/22 07:58:45;;;;;;;10.10;6.35;;;;;;;;;;5248330;26;96003;-52
2024/04/22 08:01:12;;;;;;;14.18;6.68;;;;;;;;;;5291752;26;98875;-52
2024/04/22 08:03:37;;;;;;;12.38;6.82;;;;;;;;;;5261767;26;95779;-53
2024/04/22 08:06:05;;;;;;;10.25;6.18;;;;;;;;;;5260844;26;95872;-51
2024/04/22 08:08:32;;;;;;;72.03;9.57;;;;;;;;;;5256380;26;97838;-50
2024/04/22 08:10:58;;;;;;;12.75;6.25;;;;;;;;;;5255186;26;96382;-51
2024/04/22 08:13:23;;;;;;;10.80;6.03;;;;;;;;;;5282847;26;99009;-52
2024/04/22 08:15:48;;;;;;;9.02;5.88;;;;;;;;;;5253222;26;96109;-50
2024/04/22 08:18:17;;;;;;;8.13;5.57;;;;;;;;;;5253307;26;96949;-50
2024/04/22 08:20:42;;;;;;;9.65;6.15;;;;;;;;;;5281663;26;99097;-52
2024/04/22 08:23:08;;;;;;;7.80;5.00;;;;;;;;;;5256908;26;95765;-51
2024/04/22 08:25:33;;;;;;;12.40;4.85;;;;;;;;;;5249206;26;95974;-49
2024/04/22 08:27:58;;;;;;;8.25;4.82;;;;;;;;;;5259512;26;97946;-49
2024/04/22 08:30:25;;;;;;;7.78;4.38;;;;;;;;;;5256636;26;96307;-49
2024/04/22 08:32:50;;;;;;;6.95;4.97;;;;;;;;;;5248048;26;95988;-49
2024/04/22 08:35:16;;;;;;;7.03;4.60;;;;;;;;;;5285681;26;96954;-49
2024/04/22 08:37:41;;;;;;;6.53;4.20;;;;;;;;;;5258631;26;98718;-49
2024/04/22 08:40:08;;;;;;;5.90;4.60;;;;;;;;;;5259906;26;96212;-48
2024/04/22 08:42:34;;;;;;;11.73;5.03;;;;;;;;;;5254467;26;96046;-49
2024/04/22 08:44:59;;;;;;;8.32;4.45;;;;;;;;;;5259154;26;96092;-50
2024/04/22 08:47:25;;;;;;;9.18;3.88;;;;;;;;;;5246331;26;98914;-50
2024/04/22 08:49:50;;;;;;;10.88;5.35;;;;;;;;;;5289393;26;95836;-50
2024/04/22 08:52:16;;;;;;;8.52;4.70;;;;;;;;;;5245299;26;97146;-50
2024/04/22 08:54:41;;;;;;;6.72;3.75;;;;;;;;;;5262994;26;96097;-50
2024/04/22 08:57:06;;;;;;;33.30;6.35;;;;;;;;;;5263085;26;96041;-49
2024/04/22 08:59:32;;;;;;;16.83;4.70;;;;;;;;;;5299876;26;98758;-49
2024/04/22 09:02:01;;;;;;;6.47;3.60;;;;;;;;;;5283187;26;96079;-51
2024/04/22 09:04:27;;;;;;;7.18;3.97;;;;;;;;;;5244939;26;97000;-50
2024/04/22 09:06:52;;;;;;;9.48;4.07;;;;;;;;;;5260868;26;96069;-49
2024/04/22 09:09:18;;;;;;;13.50;4.22;;;;;;;;;;5302685;26;95957;-51
2024/04/22 09:11:50;;;;;;;6.15;3.55;;;;;;;;;;5238686;26;97263;-50
2024/04/22 09:14:15;;;;;;;6.57;3.95;;;;;;;;;;5289118;26;96226;-49
2024/04/22 09:16:41;;;;;;;5.65;3.83;;;;;;;;;;5250358;26;95973;-50
2024/04/22 09:19:06;;;;;;;7.05;3.55;;;;;;;;;;5247251;26;95807;-51
2024/04/22 09:21:35;;;;;;;5.47;2.78;;;;;;;;;;5290423;26;95977;-51
2024/04/22 09:24:00;;;;;;;4.83;2.93;;;;;;;;;;5233831;26;97163;-50
2024/04/22 09:26:26;;;;;;;7.00;3.47;;;;;;;;;;5253575;26;96110;-52
2024/04/22 09:28:53;;;;;;;7.63;3.63;;;;;;;;;;5259421;26;96183;-51
2024/04/22 09:31:20;;;;;;;5.78;3.22;;;;;;;;;;5293470;26;97495;-50
2024/04/22 09:33:47;;;;;;;6.20;2.75;;;;;;;;;;5265273;26;95900;-50
2024/04/22 09:36:14;;;;;;;4.25;2.78;;;;;;;;;;5234641;26;100562;-51
2024/04/22 09:38:40;;;;;;;4.40;2.75;;;;;;;;;;5260524;26;99507;-51
2024/04/22 09:41:08;;;;;;;6.57;2.80;;;;;;;;;;5261114;26;96034;-50
2024/04/22 09:43:37;;;;;;;4.10;3.08;;;;;;;;;;5260434;26;96853;-49
2024/04/22 09:46:03;;;;;;;4.40;3.10;;;;;;;;;;5260287;26;99147;-51
2024/04/22 09:48:32;;;;;;;3.67;2.55;;;;;;;;;;5264268;26;96151;-51
2024/04/22 09:50:59;;;;;;;4.80;2.45;;;;;;;;;;5257214;26;98552;-51
2024/04/22 09:53:28;;;;;;;3.03;2.15;;;;;;;;;;5239979;26;99069;-50
2024/04/22 09:55:59;;;;;;;6.13;2.50;;;;;;;;;;5266868;26;95839;-52
2024/04/22 09:58:25;;;;;;;5.25;2.20;;;;;;;;;;5260610;26;96068;-51
2024/04/22 10:00:51;;;;;;;5.10;1.95;;;;;;;;;;5237304;26;95764;-49
2024/04/22 10:03:17;;;;;;;6.22;2.83;;;;;;;;;;5278889;26;97711;-49
2024/04/22 10:05:45;;;;;;;4.63;2.50;;;;;;;;;;5285325;26;98840;-50
2024/04/22 10:08:10;;;;;;;4.45;2.25;;;;;;;;;;5266873;26;97886;-49
2024/04/22 10:10:40;;;;;;;3.55;2.53;;;;;;;;;;5261758;26;98975;-50
2024/04/22 10:13:12;;;;;;;6.43;2.65;;;;;;;;;;5278107;26;99015;-51
2024/04/22 10:15:37;;;;;;;3.95;2.22;;;;;;;;;;5290208;26;95574;-50
2024/04/22 10:18:14;;;;;;;15.27;2.95;;;;;;;;;;5259335;26;96259;-51
2024/04/22 10:20:41;;;;;;;4.68;2.42;;;;;;;;;;5255770;26;95871;-49
2024/04/22 10:23:07;;;;;;;3.55;2.00;;;;;;;;;;5258915;26;99231;-49
2024/04/22 10:25:33;;;;;;;4.10;1.45;;;;;;;;;;5287867;26;99302;-49
2024/04/22 10:27:58;;;;;;;2.33;1.13;;;;;;;;;;5240367;26;95551;-50
2024/04/22 10:30:36;;;;;;;1.50;1.27;;;;;;;;;;5257772;26;96170;-52
2024/04/22 10:33:03;;;;;;;1.70;1.00;;;;;;;;;;5295673;26;97544;-52
2024/04/22 10:35:29;;;;;;;5.30;1.25;;;;;;;;;;5257987;26;95788;-50
2024/04/22 10:37:54;;;;;;;3.20;1.40;;;;;;;;;;5262446;26;96305;-50
2024/04/22 10:40:20;;;;;;;1.25;0.90;;;;;;;;;;5259849;26;97719;-49
2024/04/22 10:42:46;;;;;;;1.70;1.10;;;;;;;;;;5245079;26;98888;-51
2024/04/22 10:45:13;;;;;;;2.00;1.02;;;;;;;;;;5280714;26;98019;-51
2024/04/22 10:47:39;;;;;;;5.32;1.20;;;;;;;;;;5270727;26;96079;-50
2024/04/22 10:50:18;;;;;;;2.42;0.80;;;;;;;;;;5282095;26;98778;-50
2024/04/22 10:52:44;;;;;;;;;;;;;;;;;;5260984;26;96087;-49
2024/04/22 10:55:10;;;;;;;1.10;0.60;;;;;;;;;;5257967;26;96575;-49
2024/04/22 10:57:36;;;;;;;3.63;0.60;;;;;;;;;;5244693;26;99073;-52
2024/04/22 11:00:03;;;;;;;0.90;0.50;;;;;;;;;;5261024;26;98652;-49
2024/04/22 11:02:28;;;;;;;0.70;0.40;;;;;;;;;;5266377;26;97451;-49
2024/04/22 11:04:54;;;;;;;1.17;0.40;;;;;;;;;;5273730;26;98661;-48
2024/04/22 11:07:23;;;;;;;2.08;0.47;;;;;;;;;;5307244;26;95971;-48
2024/04/22 11:09:49;;;;;;;1.90;0.43;;;;;;;;;;5294353;26;98795;-49
2024/04/22 11:12:16;;;;;;;6.45;0.60;;;;;;;;;;5252812;26;97606;-50
2024/04/22 11:14:42;;;;;;;1.85;0.30;;;;;;;;;;5254613;26;97677;-50
2024/04/22 11:17:09;;;;;;;0.88;0.30;;;;;;;;;;5262059;26;99665;-50
2024/04/22 11:19:35;;;;;;;5.35;0.40;;;;;;;;;;5287257;26;99117;-50
2024/04/22 11:22:01;;;;;;;4.40;0.47;;;;;;;;;;5255191;26;97277;-50
2024/04/22 11:24:26;;;;;;;1.17;0.25;;;;;;;;;;5253252;26;99023;-50
2024/04/22 11:26:51;;;;;;;0.50;0.20;;;;;;;;;;5254549;26;97809;-50
2024/04/22 11:29:17;;;;;;;1.42;0.30;;;;;;;;;;5254743;26;96008;-50
2024/04/22 11:31:44;;;;;;;3.22;0.45;;;;;;;;;;5258527;26;97215;-50
2024/04/22 11:34:09;;;;;;;1.77;0.20;;;;;;;;;;5261889;26;95831;-50
2024/04/22 11:36:35;;;;;;;11.23;0.68;;;;;;;;;;5262850;26;95936;-50
2024/04/22 11:39:14;;;;;;;1.23;0.20;;;;;;;;;;5263847;26;96019;-51
2024/04/22 11:41:40;;;;;;;14.88;0.85;;;;;;;;;;5290173;26;95737;-50
2024/04/22 11:44:05;;;;;;;1.05;0.35;;;;;;;;;;5292227;26;99445;-50
2024/04/22 11:46:31;;;;;;;0.70;0.25;;;;;;;;;;5263141;26;95813;-50
2024/04/22 11:48:56;;;;;;;1.42;0.20;;;;;;;;;;5264901;26;97736;-50
2024/04/22 11:51:21;;;;;;;1.20;0.20;;;;;;;;;;5263389;26;96493;-50
2024/04/22 11:53:47;;;;;;;0.35;0.20;;;;;;;;;;5281557;26;96305;-50
2024/04/22 11:56:12;;;;;;;0.50;0.20;;;;;;;;;;5243856;26;98565;-50
2024/04/22 11:58:37;;;;;;;13.40;0.70;;;;;;;;;;5286321;26;98826;-50
2024/04/22 12:01:03;;;;;;;1.65;0.30;;;;;;;;;;5259945;26;95995;-50
2024/04/22 12:03:28;;;;;;;10.75;0.52;;;;;;;;;;5258791;26;96073;-51
2024/04/22 12:05:54;;;;;;;0.55;0.30;;;;;;;;;;5266160;26;96046;-49
2024/04/22 12:08:19;;;;;;;0.77;0.30;;;;;;;;;;5290623;26;98679;-51
2024/04/22 12:10:45;;;;;;;2.22;0.32;;;;;;;;;;5251932;26;98705;-48
2024/04/22 12:13:10;;;;;;;1.05;0.30;;;;;;;;;;5257239;26;95707;-50
2024/04/22 12:15:35;;;;;;;1.13;0.40;;;;;;;;;;5276345;26;97351;-50
2024/04/22 12:18:01;;;;;;;2.05;0.40;;;;;;;;;;5274284;26;97428;-50
2024/04/22 12:20:26;;;;;;;3.88;0.30;;;;;;;;;;5263182;26;95797;-49
2024/04/22 12:22:51;;;;;;;2.92;0.20;;;;;;;;;;5258768;26;96133;-50
2024/04/22 12:25:16;;;;;;;2.13;0.40;;;;;;;;;;5257190;26;99124;-50
2024/04/22 12:27:42;;;;;;;2.50;0.30;;;;;;;;;;5267785;26;95670;-49
2024/04/22 12:30:09;;;;;;;7.00;0.65;;;;;;;;;;5234431;26;97328;-49
2024/04/22 12:32:35;;;;;;;1.13;0.40;;;;;;;;;;5264867;26;97826;-49
2024/04/22 12:35:02;;;;;;;1.65;0.30;;;;;;;;;;5293098;26;97197;-49
2024/04/22 12:37:29;;;;;;;1.48;0.47;;;;;;;;;;5266419;26;98148;-49
2024/04/22 12:39:54;;;;;;;2.65;0.40;;;;;;;;;;5264727;26;97603;-49
2024/04/22 12:42:20;;;;;;;5.03;0.40;;;;;;;;;;5235080;26;97444;-50
2024/04/22 12:44:45;;;;;;;1.27;0.30;;;;;;;;;;5261406;26;95999;-48
2024/04/22 12:52:38;;;;;;;9.65;0.30;;;;;;;;;;5264581;26;95834;-51
2024/04/22 12:55:04;;;;;;;1.58;0.20;;;;;;;;;;5263185;26;95975;-51
2024/04/22 12:57:29;;;;;;;1.63;0.40;;;;;;;;;;5265247;26;95986;-51
2024/04/22 12:59:56;;;;;;;1.05;0.30;;;;;;;;;;5239436;26;96463;-51
2024/04/22 13:02:21;;;;;;;1.58;0.30;;;;;;;;;;5240160;26;98772;-50
2024/04/22 13:04:47;;;;;;;1.48;0.20;;;;;;;;;;5314812;26;98964;-50
2024/04/22 13:07:12;;;;;;;1.80;0.30;;;;;;;;;;5238795;26;95770;-52
2024/04/22 13:09:37;;;;;;;1.15;0.30;;;;;;;;;;5305817;26;98707;-51
2024/04/22 13:12:03;;;;;;;3.72;0.45;;;;;;;;;;5244471;26;98552;-49
2024/04/22 13:14:28;;;;;;;1.52;0.30;;;;;;;;;;5263766;26;95932;-49
2024/04/22 13:16:54;;;;;;;1.60;0.22;;;;;;;;;;5221804;26;98709;-51
2024/04/22 13:19:19;;;;;;;2.85;0.30;;;;;;;;;;5265107;26;96077;-51
2024/04/22 13:21:45;;;;;;;0.60;0.20;;;;;;;;;;5238582;26;98687;-50
2024/04/22 13:24:10;;;;;;;2.03;0.45;;;;;;;;;;5313293;26;98480;-51
2024/04/22 13:26:35;;;;;;;1.90;0.30;;;;;;;;;;5263998;26;95856;-51
2024/04/22 13:29:01;;;;;;;2.05;0.13;;;;;;;;;;5254228;26;97128;-50
2024/04/22 13:31:27;;;;;;;1.65;0.60;;;;;;;;;;5265768;26;96719;-51
2024/04/22 13:33:52;;;;;;;0.60;0.30;;;;;;;;;;5293234;26;97650;-51
2024/04/22 13:36:18;;;;;;;6.35;1.95;;;;;;;;;;5263147;26;96154;-51
2024/04/22 13:38:43;;;;;;;0.77;0.20;;;;;;;;;;5259260;26;95873;-51
2024/04/22 13:41:09;;;;;;;2.35;0.20;;;;;;;;;;5308936;26;98678;-51
2024/04/22 13:43:34;;;;;;;0.63;0.20;;;;;;;;;;5263577;26;96117;-51
2024/04/22 13:45:59;;;;;;;0.60;0.20;;;;;;;;;;5243861;26;95653;-52
2024/04/22 13:48:25;;;;;;;0.70;0.20;;;;;;;;;;5265592;26;96387;-51
2024/04/22 13:50:50;;;;;;;1.30;0.20;;;;;;;;;;5252108;26;99327;-51
2024/04/22 13:53:16;;;;;;;1.15;0.20;;;;;;;;;;5300548;26;96459;-51
2024/04/22 13:55:41;;;;;;;1.27;0.20;;;;;;;;;;5249968;26;98607;-51
2024/04/22 13:58:06;;;;;;;1.33;0.10;;;;;;;;;;5263778;26;95783;-51
2024/04/22 14:00:32;;;;;;;3.22;0.40;;;;;;;;;;5248678;26;99251;-51
2024/04/22 14:02:57;;;;;;;2.63;0.30;;;;;;;;;;5297943;26;97594;-50
2024/04/22 14:05:22;;;;;;;7.53;0.47;;;;;;;;;;5263801;26;95763;-51
2024/04/22 14:07:48;;;;;;;1.02;0.30;;;;;;;;;;5236878;26;98905;-51
2024/04/22 14:10:14;;;;;;;1.73;0.55;;;;;;;;;;5262238;26;98969;-51
2024/04/22 14:12:39;;;;;;;3.90;0.50;;;;;;;;;;5263701;26;96024;-52
2024/04/22 14:15:05;;;;;;;2.35;0.30;;;;;;;;;;5245112;26;97333;-51
2024/04/22 14:17:30;;;;;;;2.22;0.22;;;;;;;;;;5263414;26;96090;-51
2024/04/22 14:19:56;;;;;;;3.75;0.38;;;;;;;;;;5261114;26;98683;-51
2024/04/22 14:22:21;;;;;;;0.57;0.45;;;;;;;;;;5259105;26;97266;-51
2024/04/22 14:24:46;;;;;;;0.90;0.30;;;;;;;;;;5263530;26;95907;-51
2024/04/22 14:27:12;;;;;;;3.17;0.50;;;;;;;;;;5298835;26;99847;-51
2024/04/22 14:29:37;;;;;;;1.15;0.20;;;;;;;;;;5294281;26;98747;-51
2024/04/22 14:32:04;;;;;;;1.55;0.25;;;;;;;;;;5262498;26;96184;-50
2024/04/22 14:34:29;;;;;;;0.95;0.28;;;;;;;;;;5264519;26;96067;-50
2024/04/22 14:36:55;;;;;;;0.95;0.30;;;;;;;;;;5295823;26;98570;-51
2024/04/22 14:39:20;;;;;;;1.38;0.20;;;;;;;;;;5263658;26;96008;-51
2024/04/22 14:41:45;;;;;;;0.30;0.17;;;;;;;;;;5253848;26;98642;-52
2024/04/22 14:44:10;;;;;;;2.50;0.20;;;;;;;;;;5263181;26;95759;-51
2024/04/22 14:46:36;;;;;;;1.05;0.20;;;;;;;;;;5282228;26;99257;-51